Time;durP1;ratioP1;P1;durP2;ratioP2;P2;SDS_P1;SDS_P2;PMS_P1;PMS_P2;Temp;Humidity;BMP_temperature;BMP_pressure;BME280_temperature;BME280_humidity;BME280_pressure;Samples;Min_cycle;Max_cycle;Signal;HPM_P1;HPM_P2
2022/08/16 07:47:44;;;;;;;4.95;2.08;;;;;;;;;;6123245;23;20214;-89
2022/08/16 07:50:51;;;;;;;6.30;2.38;;;;;;;;;;6120028;23;20173;-90
2022/08/16 07:53:58;;;;;;;5.30;2.10;;;;;;;;;;6120978;23;20145;-90
2022/08/16 07:57:03;;;;;;;5.82;2.20;;;;;;;;;;6121399;23;20239;-91
2022/08/16 08:00:11;;;;;;;5.65;2.60;;;;;;;;;;6120190;23;20176;-90
2022/08/16 08:03:21;;;;;;;4.05;2.47;;;;;;;;;;6137704;23;20202;-90
2022/08/16 08:06:28;;;;;;;6.60;2.70;;;;;;;;;;6122465;23;20173;-89
2022/08/16 08:12:59;;;;;;;4.47;2.22;;;;;;;;;;6122321;23;20247;-90
2022/08/16 08:16:08;;;;;;;15.52;2.67;;;;;;;;;;6121157;23;20168;-90
2022/08/16 08:19:15;;;;;;;5.07;2.40;;;;;;;;;;6122681;23;20181;-90
2022/08/16 08:22:24;;;;;;;7.50;2.47;;;;;;;;;;6120143;23;20267;-90
2022/08/16 08:25:32;;;;;;;5.70;2.25;;;;;;;;;;6121159;23;20229;-89
2022/08/16 08:28:37;;;;;;;6.28;2.20;;;;;;;;;;6123658;23;20241;-90
2022/08/16 08:31:45;;;;;;;3.72;2.05;;;;;;;;;;6121442;23;20176;-90
2022/08/16 08:34:54;;;;;;;3.22;2.10;;;;;;;;;;6124641;23;20272;-89
2022/08/16 08:38:01;;;;;;;5.75;2.30;;;;;;;;;;6121261;23;20235;-91
2022/08/16 08:41:11;;;;;;;4.10;1.85;;;;;;;;;;6122924;23;20173;-90
2022/08/16 08:44:20;;;;;;;5.15;2.10;;;;;;;;;;6120644;23;20177;-91
2022/08/16 08:47:26;;;;;;;4.65;2.05;;;;;;;;;;6120636;23;20261;-93
2022/08/16 08:50:34;;;;;;;3.28;2.00;;;;;;;;;;6119681;23;20749;-91
2022/08/16 08:53:41;;;;;;;4.65;2.03;;;;;;;;;;6121390;23;20176;-92
2022/08/16 08:56:47;;;;;;;5.95;1.95;;;;;;;;;;6119951;23;20193;-92
2022/08/16 09:00:27;;;;;;;15.90;3.38;;;;;;;;;;6047042;23;20192;-89
2022/08/16 09:03:44;;;;;;;4.25;2.22;;;;;;;;;;6119760;23;20201;-90
2022/08/16 09:06:59;;;;;;;5.43;2.20;;;;;;;;;;6122111;23;20172;-91
2022/08/16 09:10:07;;;;;;;4.53;2.00;;;;;;;;;;6120985;23;20177;-93
2022/08/16 09:13:15;;;;;;;8.70;2.00;;;;;;;;;;6119689;23;20172;-91
2022/08/16 09:16:25;;;;;;;16.35;3.67;;;;;;;;;;6119169;23;20210;-91
2022/08/16 09:19:30;;;;;;;3.20;2.00;;;;;;;;;;6118113;23;20495;-93
2022/08/16 09:22:40;;;;;;;4.97;1.80;;;;;;;;;;6119978;23;20195;-90
2022/08/16 09:25:47;;;;;;;6.82;1.90;;;;;;;;;;6119891;23;20156;-90
2022/08/16 09:28:53;;;;;;;2.75;1.90;;;;;;;;;;6120029;23;20168;-89
2022/08/16 09:32:01;;;;;;;3.58;1.90;;;;;;;;;;6119427;23;20173;-89
2022/08/16 09:35:09;;;;;;;6.07;1.95;;;;;;;;;;6133890;23;20611;-89
2022/08/16 09:38:15;;;;;;;4.93;2.00;;;;;;;;;;6119480;23;20175;-90
2022/08/16 09:41:20;;;;;;;2.50;2.03;;;;;;;;;;6118470;23;20268;-91
2022/08/16 09:44:26;;;;;;;3.13;2.35;;;;;;;;;;6120476;23;20165;-91
2022/08/16 09:47:32;;;;;;;4.45;2.20;;;;;;;;;;6118684;23;20255;-90
2022/08/16 09:50:38;;;;;;;7.03;2.28;;;;;;;;;;6120537;23;20148;-91
2022/08/16 09:53:48;;;;;;;3.70;2.50;;;;;;;;;;6119449;23;20228;-91
2022/08/16 09:56:54;;;;;;;4.22;2.42;;;;;;;;;;6122355;23;20165;-91
2022/08/16 10:00:00;;;;;;;3.63;2.20;;;;;;;;;;6123375;23;20172;-93
2022/08/16 10:03:05;;;;;;;10.75;2.30;;;;;;;;;;6118667;23;20240;-91
2022/08/16 10:06:10;;;;;;;3.53;1.92;;;;;;;;;;6118496;23;20173;-91
2022/08/16 10:09:17;;;;;;;4.18;2.20;;;;;;;;;;6121298;23;20248;-91
2022/08/16 10:15:47;;;;;;;5.60;2.40;;;;;;;;;;6119632;23;20188;-91
2022/08/16 10:18:52;;;;;;;3.55;2.20;;;;;;;;;;6118947;23;20168;-93
2022/08/16 10:21:58;;;;;;;3.35;1.92;;;;;;;;;;6119894;23;20205;-91
2022/08/16 10:25:07;;;;;;;5.07;2.28;;;;;;;;;;6121584;23;20172;-90
2022/08/16 10:28:22;;;;;;;4.07;2.00;;;;;;;;;;6122409;23;20172;-91
2022/08/16 10:31:27;;;;;;;3.13;2.00;;;;;;;;;;6120221;23;20177;-90
2022/08/16 10:34:32;;;;;;;2.65;1.95;;;;;;;;;;6121976;23;20160;-91
2022/08/16 10:37:37;;;;;;;3.70;2.13;;;;;;;;;;6120645;23;20243;-90
2022/08/16 10:40:46;;;;;;;3.92;2.13;;;;;;;;;;6124456;23;20255;-93
2022/08/16 10:43:52;;;;;;;3.35;2.00;;;;;;;;;;6123278;23;20200;-90
2022/08/16 10:46:58;;;;;;;4.70;2.30;;;;;;;;;;6121111;23;20506;-93
2022/08/16 10:50:05;;;;;;;6.00;2.22;;;;;;;;;;6123584;23;20176;-91
2022/08/16 10:53:16;;;;;;;6.00;2.45;;;;;;;;;;6122801;23;20240;-90
2022/08/16 10:56:23;;;;;;;5.20;1.92;;;;;;;;;;6123593;23;20168;-90
2022/08/16 10:59:32;;;;;;;2.95;1.98;;;;;;;;;;6121981;23;20192;-90
2022/08/16 11:02:42;;;;;;;15.25;2.60;;;;;;;;;;6121377;23;20253;-91
2022/08/16 11:05:48;;;;;;;4.28;1.98;;;;;;;;;;6120791;23;20172;-90
2022/08/16 11:08:54;;;;;;;6.30;1.90;;;;;;;;;;6119900;23;20171;-89
2022/08/16 11:12:00;;;;;;;4.10;1.60;;;;;;;;;;6119741;23;20172;-91
2022/08/16 11:15:06;;;;;;;3.30;1.90;;;;;;;;;;6121083;23;20196;-92
2022/08/16 11:18:12;;;;;;;3.28;1.77;;;;;;;;;;6121506;23;20168;-91
2022/08/16 11:21:19;;;;;;;2.97;1.80;;;;;;;;;;6120939;23;20175;-90
2022/08/16 11:24:24;;;;;;;4.03;1.83;;;;;;;;;;6123794;23;20189;-91
2022/08/16 11:27:31;;;;;;;5.75;1.98;;;;;;;;;;6122295;23;20180;-90
2022/08/16 11:30:37;;;;;;;3.08;1.83;;;;;;;;;;6121590;23;20639;-91
2022/08/16 11:33:43;;;;;;;2.40;1.65;;;;;;;;;;6123471;23;20172;-90
2022/08/16 11:36:51;;;;;;;4.15;1.80;;;;;;;;;;6123453;23;20172;-89
2022/08/16 11:39:56;;;;;;;5.05;1.90;;;;;;;;;;6121699;23;20167;-90
2022/08/16 11:43:05;;;;;;;3.28;1.90;;;;;;;;;;6121997;23;20260;-91
2022/08/16 11:46:15;;;;;;;5.82;2.05;;;;;;;;;;6123190;23;20706;-90
2022/08/16 11:49:23;;;;;;;6.32;1.95;;;;;;;;;;6136229;23;20215;-90
2022/08/16 11:52:28;;;;;;;2.53;1.70;;;;;;;;;;6120937;23;20173;-90
2022/08/16 11:55:33;;;;;;;2.38;1.80;;;;;;;;;;6123325;23;20217;-91
2022/08/16 11:58:40;;;;;;;3.25;1.88;;;;;;;;;;6120229;23;20250;-90
2022/08/16 12:01:45;;;;;;;5.22;1.75;;;;;;;;;;6124095;23;20217;-90
2022/08/16 12:04:52;;;;;;;5.22;1.73;;;;;;;;;;6120818;23;20172;-91
2022/08/16 12:08:00;;;;;;;2.88;1.60;;;;;;;;;;6123110;23;20181;-92
2022/08/16 12:11:09;;;;;;;4.40;1.80;;;;;;;;;;6140325;23;20173;-90
2022/08/16 12:14:17;;;;;;;6.18;2.05;;;;;;;;;;6119454;23;20252;-90
2022/08/16 12:17:22;;;;;;;3.65;1.55;;;;;;;;;;6119094;23;20160;-90
2022/08/16 12:20:30;;;;;;;5.45;1.90;;;;;;;;;;6119770;23;20172;-91
2022/08/16 12:23:35;;;;;;;8.98;1.80;;;;;;;;;;6119857;23;20261;-90
2022/08/16 12:26:40;;;;;;;3.90;1.40;;;;;;;;;;6120186;23;20183;-90
2022/08/16 12:29:47;;;;;;;1.73;1.40;;;;;;;;;;6120035;23;20172;-92
2022/08/16 12:32:52;;;;;;;4.00;1.77;;;;;;;;;;6121704;23;20156;-91
2022/08/16 12:35:58;;;;;;;2.35;1.70;;;;;;;;;;6124334;23;20175;-88
2022/08/16 12:39:03;;;;;;;2.25;1.33;;;;;;;;;;6120982;23;20164;-90
2022/08/16 12:42:09;;;;;;;3.28;1.60;;;;;;;;;;6122568;23;20229;-90
2022/08/16 12:45:20;;;;;;;3.40;1.60;;;;;;;;;;6120432;23;20169;-91
2022/08/16 12:52:02;;;;;;;3.10;1.55;;;;;;;;;;6020364;23;20175;-90
2022/08/16 12:55:10;;;;;;;3.47;1.60;;;;;;;;;;6122670;23;20172;-90
2022/08/16 12:58:16;;;;;;;4.07;1.80;;;;;;;;;;6121084;23;20218;-89
2022/08/16 13:01:25;;;;;;;4.60;1.85;;;;;;;;;;6122988;23;20261;-90
2022/08/16 13:04:31;;;;;;;2.17;1.60;;;;;;;;;;6120057;23;20204;-91
2022/08/16 13:07:37;;;;;;;4.10;1.63;;;;;;;;;;6119491;23;20177;-89
2022/08/16 13:10:45;;;;;;;4.70;1.90;;;;;;;;;;6122638;23;20153;-90
2022/08/16 13:13:51;;;;;;;2.92;1.80;;;;;;;;;;6119856;23;20165;-90
2022/08/16 13:16:57;;;;;;;6.35;2.15;;;;;;;;;;6122506;23;20172;-92
2022/08/16 13:20:03;;;;;;;4.97;1.80;;;;;;;;;;6122132;23;20168;-89
2022/08/16 13:23:10;;;;;;;3.17;1.40;;;;;;;;;;6121930;23;20719;-89
2022/08/16 13:26:16;;;;;;;4.57;1.60;;;;;;;;;;6122487;23;20192;-90
2022/08/16 13:29:21;;;;;;;2.42;1.50;;;;;;;;;;6121056;23;20504;-89
2022/08/16 13:32:28;;;;;;;3.83;1.75;;;;;;;;;;6120745;23;20252;-89
2022/08/16 13:35:33;;;;;;;2.95;1.75;;;;;;;;;;6120638;23;20173;-90
2022/08/16 13:38:39;;;;;;;5.85;2.13;;;;;;;;;;6137473;23;20185;-89
2022/08/16 13:41:44;;;;;;;4.70;1.67;;;;;;;;;;6120475;23;20176;-90
2022/08/16 13:44:49;;;;;;;5.85;1.70;;;;;;;;;;6122085;23;20208;-90
2022/08/16 13:47:56;;;;;;;6.28;2.13;;;;;;;;;;6121944;23;20255;-90
2022/08/16 13:51:02;;;;;;;3.53;1.55;;;;;;;;;;6121802;23;20168;-89
2022/08/16 13:54:07;;;;;;;2.33;1.50;;;;;;;;;;6121166;23;20167;-90
2022/08/16 13:57:13;;;;;;;6.35;1.70;;;;;;;;;;6121651;23;20304;-92
2022/08/16 14:00:19;;;;;;;4.80;1.65;;;;;;;;;;6119818;23;20172;-90
2022/08/16 14:03:26;;;;;;;5.47;2.20;;;;;;;;;;6123020;23;20196;-89
2022/08/16 14:06:31;;;;;;;3.63;1.88;;;;;;;;;;6125490;23;20600;-89
2022/08/16 14:09:38;;;;;;;5.50;1.90;;;;;;;;;;6125243;23;20193;-90
2022/08/16 14:12:44;;;;;;;2.67;1.40;;;;;;;;;;6121542;23;20546;-90
2022/08/16 14:15:49;;;;;;;4.10;1.50;;;;;;;;;;6122766;23;20213;-88
2022/08/16 14:18:56;;;;;;;2.30;1.40;;;;;;;;;;6123552;23;20171;-89
2022/08/16 14:22:03;;;;;;;2.53;1.83;;;;;;;;;;6122088;23;20188;-88
2022/08/16 14:25:15;;;;;;;4.53;1.77;;;;;;;;;;6123953;23;20168;-90
2022/08/16 14:28:21;;;;;;;9.57;1.83;;;;;;;;;;6125144;23;20210;-89
2022/08/16 14:31:26;;;;;;;1.80;1.40;;;;;;;;;;6124201;23;20168;-86
2022/08/16 14:34:34;;;;;;;3.60;1.88;;;;;;;;;;6122724;23;20168;-91
2022/08/16 14:37:40;;;;;;;2.67;1.67;;;;;;;;;;6124818;23;20172;-90
2022/08/16 14:40:46;;;;;;;6.03;2.20;;;;;;;;;;6125546;23;20181;-90
2022/08/16 14:43:53;;;;;;;2.83;1.50;;;;;;;;;;6123927;23;20192;-91
2022/08/16 14:46:59;;;;;;;6.45;1.90;;;;;;;;;;6123309;23;20437;-91
2022/08/16 14:50:08;;;;;;;2.88;1.73;;;;;;;;;;6106202;23;20176;-89
2022/08/16 14:53:13;;;;;;;5.90;1.92;;;;;;;;;;6121311;23;20271;-92
2022/08/16 14:56:18;;;;;;;5.40;1.60;;;;;;;;;;6119834;23;20169;-90
2022/08/16 14:59:23;;;;;;;3.05;1.70;;;;;;;;;;6119456;23;20235;-91
2022/08/16 15:02:29;;;;;;;3.90;2.00;;;;;;;;;;6121703;23;20171;-91
2022/08/16 15:05:35;;;;;;;3.38;1.90;;;;;;;;;;6122456;23;20238;-91
2022/08/16 15:08:42;;;;;;;2.60;1.65;;;;;;;;;;6126519;23;20213;-91
2022/08/16 15:11:47;;;;;;;3.28;2.08;;;;;;;;;;6124325;23;20191;-89
2022/08/16 15:14:55;;;;;;;2.53;1.60;;;;;;;;;;6122693;23;20164;-90
2022/08/16 15:18:00;;;;;;;4.47;1.73;;;;;;;;;;6122440;23;20173;-91
2022/08/16 15:21:07;;;;;;;2.60;1.80;;;;;;;;;;6123802;23;20169;-90
2022/08/16 15:24:12;;;;;;;4.63;1.75;;;;;;;;;;6120548;23;20232;-90
2022/08/16 15:27:17;;;;;;;6.45;1.95;;;;;;;;;;6122158;23;20627;-90
2022/08/16 15:30:24;;;;;;;7.80;2.25;;;;;;;;;;6120856;23;20269;-90
2022/08/16 15:33:29;;;;;;;5.03;1.90;;;;;;;;;;6121862;23;20173;-90
2022/08/16 15:36:39;;;;;;;3.45;1.90;;;;;;;;;;6121580;23;20179;-90
2022/08/16 15:39:46;;;;;;;2.42;1.70;;;;;;;;;;6121846;23;20176;-89
2022/08/16 15:42:56;;;;;;;4.30;1.67;;;;;;;;;;6139942;23;20180;-89
2022/08/16 15:46:27;;;;;;;2.40;1.50;;;;;;;;;;6122032;23;20168;-91
2022/08/16 15:49:36;;;;;;;3.33;1.90;;;;;;;;;;6125470;23;20195;-90
2022/08/16 15:52:44;;;;;;;3.55;1.80;;;;;;;;;;6125940;23;20222;-91
2022/08/16 15:55:50;;;;;;;3.75;2.03;;;;;;;;;;6123861;23;20611;-89
2022/08/16 15:58:55;;;;;;;4.68;2.17;;;;;;;;;;6123251;23;20169;-90
2022/08/16 16:02:01;;;;;;;3.92;1.67;;;;;;;;;;6124168;23;20165;-89
2022/08/16 16:05:07;;;;;;;2.33;1.77;;;;;;;;;;6123423;23;20197;-90
2022/08/16 16:08:15;;;;;;;5.75;1.85;;;;;;;;;;6127462;23;20257;-90
2022/08/16 16:11:20;;;;;;;3.97;2.25;;;;;;;;;;6123397;23;20189;-89
2022/08/16 16:14:25;;;;;;;3.28;1.80;;;;;;;;;;6122074;23;20180;-90
2022/08/16 16:17:34;;;;;;;2.63;2.13;;;;;;;;;;6122628;23;20180;-90
2022/08/16 16:20:45;;;;;;;4.50;1.92;;;;;;;;;;6124340;23;20173;-90
2022/08/16 16:23:51;;;;;;;2.55;1.90;;;;;;;;;;6123851;23;20319;-90
2022/08/16 16:26:56;;;;;;;5.75;1.90;;;;;;;;;;6122074;23;20169;-89
2022/08/16 16:30:02;;;;;;;2.25;1.50;;;;;;;;;;6118887;23;20503;-90
2022/08/16 16:33:09;;;;;;;2.67;1.80;;;;;;;;;;6120524;23;20173;-90
2022/08/16 16:36:16;;;;;;;3.58;1.75;;;;;;;;;;6119167;23;20499;-90
2022/08/16 16:39:22;;;;;;;3.78;1.83;;;;;;;;;;6120557;23;20245;-89
2022/08/16 16:42:34;;;;;;;3.92;1.90;;;;;;;;;;6121739;23;20172;-90
2022/08/16 16:45:43;;;;;;;2.20;1.70;;;;;;;;;;6119639;23;20708;-93
2022/08/16 16:48:50;;;;;;;4.97;1.73;;;;;;;;;;6120978;23;20233;-91
2022/08/16 16:51:55;;;;;;;6.40;1.70;;;;;;;;;;6119386;23;20173;-89
2022/08/16 16:55:01;;;;;;;3.05;1.90;;;;;;;;;;6119121;23;20220;-91
2022/08/16 17:01:32;;;;;;;2.78;1.85;;;;;;;;;;6120597;23;20165;-92
2022/08/16 17:04:37;;;;;;;6.15;2.30;;;;;;;;;;6120123;23;20192;-89
2022/08/16 17:07:42;;;;;;;2.78;1.98;;;;;;;;;;6122757;23;20173;-90
2022/08/16 17:10:49;;;;;;;4.82;2.15;;;;;;;;;;6121977;23;20268;-88
2022/08/16 17:13:54;;;;;;;2.60;1.80;;;;;;;;;;6121442;23;20173;-90
2022/08/16 17:17:00;;;;;;;6.43;2.47;;;;;;;;;;6120785;23;20172;-89
2022/08/16 17:20:06;;;;;;;5.50;2.40;;;;;;;;;;6119586;23;20303;-89
2022/08/16 17:23:11;;;;;;;5.57;2.28;;;;;;;;;;6119647;23;20192;-91
2022/08/16 17:26:18;;;;;;;7.10;2.08;;;;;;;;;;6120774;23;20174;-90
2022/08/16 17:29:23;;;;;;;3.25;2.35;;;;;;;;;;6120144;23;20177;-92
2022/08/16 17:32:28;;;;;;;5.45;3.10;;;;;;;;;;6118748;23;20234;-90
2022/08/16 17:35:34;;;;;;;3.80;2.20;;;;;;;;;;6119195;23;20217;-90
2022/08/16 17:38:40;;;;;;;8.32;2.60;;;;;;;;;;6118458;23;20176;-90
2022/08/16 17:41:47;;;;;;;3.22;2.00;;;;;;;;;;6120150;23;20618;-88
2022/08/16 17:44:55;;;;;;;4.75;1.90;;;;;;;;;;6119324;23;20193;-88
2022/08/16 17:48:00;;;;;;;4.43;2.30;;;;;;;;;;6118984;23;20284;-88
2022/08/16 17:51:06;;;;;;;4.65;2.20;;;;;;;;;;6119501;23;20170;-90
2022/08/16 17:54:11;;;;;;;3.58;2.40;;;;;;;;;;6137245;23;20504;-91
2022/08/16 17:57:18;;;;;;;3.70;2.05;;;;;;;;;;6119789;23;20318;-90
2022/08/16 18:00:23;;;;;;;6.78;2.40;;;;;;;;;;6118939;23;20172;-88
2022/08/16 18:03:29;;;;;;;5.47;2.30;;;;;;;;;;6118753;23;20172;-88
2022/08/16 18:06:34;;;;;;;6.57;2.42;;;;;;;;;;6117875;23;20190;-91
2022/08/16 18:09:40;;;;;;;6.00;2.40;;;;;;;;;;6121092;23;20169;-89
2022/08/16 18:12:50;;;;;;;7.13;2.55;;;;;;;;;;6119399;23;20220;-87
2022/08/16 18:15:57;;;;;;;8.32;2.90;;;;;;;;;;6116194;23;20245;-92
2022/08/16 18:19:02;;;;;;;3.80;2.00;;;;;;;;;;6116726;23;20168;-89
2022/08/16 18:22:24;;;;;;;5.22;2.17;;;;;;;;;;6119261;23;20258;-90
2022/08/16 18:25:33;;;;;;;8.00;2.85;;;;;;;;;;6116699;23;20290;-90
2022/08/16 18:28:40;;;;;;;6.95;2.58;;;;;;;;;;6119736;23;20486;-92
2022/08/16 18:31:49;;;;;;;3.50;2.30;;;;;;;;;;6117336;23;20260;-88
2022/08/16 18:34:55;;;;;;;6.07;2.55;;;;;;;;;;6117989;23;20253;-89
2022/08/16 18:38:00;;;;;;;5.80;2.40;;;;;;;;;;6119600;23;20168;-88
2022/08/16 18:41:06;;;;;;;8.82;2.83;;;;;;;;;;6117999;23;20231;-91
2022/08/16 18:44:14;;;;;;;5.38;2.53;;;;;;;;;;6117854;23;20172;-87
2022/08/16 18:47:19;;;;;;;6.32;2.90;;;;;;;;;;6116633;23;20173;-86
2022/08/16 18:50:24;;;;;;;3.80;2.38;;;;;;;;;;6115050;23;20174;-89
2022/08/16 18:53:29;;;;;;;7.57;2.42;;;;;;;;;;6117225;23;20210;-92
2022/08/16 18:56:34;;;;;;;4.63;2.70;;;;;;;;;;6117747;23;20593;-90
2022/08/16 18:59:41;;;;;;;5.57;2.72;;;;;;;;;;6116469;23;20173;-89
2022/08/16 19:02:47;;;;;;;4.53;2.80;;;;;;;;;;6118557;23;20238;-90
2022/08/16 19:05:55;;;;;;;5.07;2.78;;;;;;;;;;6119775;23;20197;-89
2022/08/16 19:09:01;;;;;;;4.32;2.80;;;;;;;;;;6117352;23;20279;-89
2022/08/16 19:12:06;;;;;;;5.07;2.75;;;;;;;;;;6118640;23;20172;-89
2022/08/16 19:15:14;;;;;;;6.05;2.83;;;;;;;;;;6118222;23;20173;-92
2022/08/16 19:18:20;;;;;;;4.32;3.10;;;;;;;;;;6119466;23;20245;-91
2022/08/16 19:21:25;;;;;;;3.60;2.72;;;;;;;;;;6117764;23;20177;-90
2022/08/16 19:24:30;;;;;;;5.88;3.05;;;;;;;;;;6118828;23;20197;-92
2022/08/16 19:27:37;;;;;;;5.85;3.00;;;;;;;;;;6118945;23;20247;-91
2022/08/16 19:30:43;;;;;;;4.85;2.92;;;;;;;;;;6118109;23;20177;-91
2022/08/16 19:33:50;;;;;;;7.28;3.25;;;;;;;;;;6117891;23;20225;-90
2022/08/16 19:36:56;;;;;;;6.55;3.05;;;;;;;;;;6117874;23;20198;-90
2022/08/16 19:40:01;;;;;;;4.47;2.80;;;;;;;;;;6118178;23;20169;-91
2022/08/16 19:43:08;;;;;;;6.68;3.33;;;;;;;;;;6119900;23;20711;-90
2022/08/16 19:46:16;;;;;;;6.05;2.95;;;;;;;;;;6116879;23;20201;-91
2022/08/16 19:49:21;;;;;;;5.72;2.80;;;;;;;;;;6118940;23;20258;-88
2022/08/16 19:52:27;;;;;;;8.57;2.92;;;;;;;;;;6119407;23;20172;-90
2022/08/16 19:55:34;;;;;;;5.88;3.33;;;;;;;;;;6119742;23;20173;-90
2022/08/16 19:58:41;;;;;;;6.07;3.80;;;;;;;;;;6120524;23;20614;-90
2022/08/16 20:01:48;;;;;;;3.58;3.00;;;;;;;;;;6121367;23;20178;-92
2022/08/16 20:04:54;;;;;;;4.22;2.83;;;;;;;;;;6122289;23;20268;-91
2022/08/16 20:08:01;;;;;;;6.63;2.83;;;;;;;;;;6119776;23;20185;-89
2022/08/16 20:11:06;;;;;;;6.00;3.42;;;;;;;;;;6124182;23;20172;-88
2022/08/16 20:14:12;;;;;;;5.07;3.10;;;;;;;;;;6123317;23;20169;-90
2022/08/16 20:17:19;;;;;;;7.75;3.20;;;;;;;;;;6122354;23;20177;-89
2022/08/16 20:20:26;;;;;;;8.30;2.92;;;;;;;;;;6123133;23;20173;-89
2022/08/16 20:23:31;;;;;;;7.75;3.17;;;;;;;;;;6123565;23;20310;-89
2022/08/16 20:26:36;;;;;;;5.15;3.35;;;;;;;;;;6123341;23;20200;-89
2022/08/16 20:29:43;;;;;;;6.45;3.45;;;;;;;;;;6121836;23;20169;-89
2022/08/16 20:32:51;;;;;;;7.95;3.83;;;;;;;;;;6124339;23;20495;-91
2022/08/16 20:35:56;;;;;;;11.95;3.38;;;;;;;;;;6121619;23;20169;-90
2022/08/16 20:39:02;;;;;;;3.72;3.00;;;;;;;;;;6121057;23;20601;-91
2022/08/16 20:42:08;;;;;;;8.77;3.40;;;;;;;;;;6121678;23;20164;-91
2022/08/16 20:45:13;;;;;;;8.68;3.40;;;;;;;;;;6120324;23;20198;-88
2022/08/16 20:48:20;;;;;;;5.28;3.58;;;;;;;;;;6122347;23;20184;-90
2022/08/16 20:51:25;;;;;;;9.02;3.47;;;;;;;;;;6124884;23;20169;-89
2022/08/16 20:54:30;;;;;;;9.77;4.40;;;;;;;;;;6123568;23;20788;-90
2022/08/16 20:57:36;;;;;;;8.93;3.50;;;;;;;;;;6120405;23;20173;-89
2022/08/16 21:00:42;;;;;;;6.05;3.50;;;;;;;;;;6121386;23;20169;-90
2022/08/16 21:03:48;;;;;;;9.15;3.70;;;;;;;;;;6120813;23;20197;-90
2022/08/16 21:06:54;;;;;;;7.43;3.72;;;;;;;;;;6120757;23;20196;-89
2022/08/16 21:10:00;;;;;;;8.00;3.90;;;;;;;;;;6120013;23;20217;-91
2022/08/16 21:13:06;;;;;;;8.93;3.70;;;;;;;;;;6121108;23;20220;-88
2022/08/16 21:16:15;;;;;;;7.68;3.85;;;;;;;;;;6122496;23;20197;-89
2022/08/16 21:19:21;;;;;;;7.18;3.92;;;;;;;;;;6121157;23;20228;-90
2022/08/16 21:22:27;;;;;;;10.40;4.05;;;;;;;;;;6120612;23;20169;-87
2022/08/16 21:25:32;;;;;;;8.82;4.35;;;;;;;;;;6122245;23;20200;-91
2022/08/16 21:28:38;;;;;;;6.93;3.78;;;;;;;;;;6120537;23;20201;-91
2022/08/16 21:31:43;;;;;;;10.75;4.22;;;;;;;;;;6121858;23;20173;-89
2022/08/16 21:34:51;;;;;;;6.65;3.83;;;;;;;;;;6119688;23;20201;-90
2022/08/16 21:37:57;;;;;;;6.60;3.92;;;;;;;;;;6120722;23;20167;-89
2022/08/16 21:41:03;;;;;;;9.07;4.15;;;;;;;;;;6122027;23;20173;-89
2022/08/16 21:44:08;;;;;;;9.32;3.97;;;;;;;;;;6120620;23;20176;-90
2022/08/16 21:47:40;;;;;;;8.68;4.45;;;;;;;;;;6119099;23;20169;-88
2022/08/16 21:50:47;;;;;;;5.88;4.07;;;;;;;;;;6122565;23;20244;-89
2022/08/16 21:53:52;;;;;;;8.80;4.28;;;;;;;;;;6119532;23;20181;-88
2022/08/16 21:56:57;;;;;;;8.20;4.15;;;;;;;;;;6121097;23;20173;-88
2022/08/16 22:00:02;;;;;;;7.93;3.85;;;;;;;;;;6118403;23;20455;-89
2022/08/16 22:03:17;;;;;;;5.68;3.60;;;;;;;;;;6136833;23;20286;-90
2022/08/16 22:06:24;;;;;;;5.82;3.97;;;;;;;;;;6120498;23;20512;-89
2022/08/16 22:09:29;;;;;;;7.45;3.97;;;;;;;;;;6117905;23;20193;-90
2022/08/16 22:12:34;;;;;;;8.05;4.03;;;;;;;;;;6117565;23;20169;-90
2022/08/16 22:15:40;;;;;;;7.75;4.32;;;;;;;;;;6117454;23;20169;-89
2022/08/16 22:18:45;;;;;;;5.80;3.85;;;;;;;;;;6120277;23;20165;-89
2022/08/16 22:21:51;;;;;;;7.50;4.30;;;;;;;;;;6122201;23;20185;-90
2022/08/16 22:24:56;;;;;;;6.57;3.90;;;;;;;;;;6116850;23;20189;-89
2022/08/16 22:28:01;;;;;;;6.07;4.45;;;;;;;;;;6119200;23;20220;-89
2022/08/16 22:31:07;;;;;;;9.27;4.70;;;;;;;;;;6118237;23;20594;-91
2022/08/16 22:34:12;;;;;;;10.85;4.32;;;;;;;;;;6117163;23;20169;-90
2022/08/16 22:37:19;;;;;;;8.48;4.72;;;;;;;;;;6121883;23;20188;-91
2022/08/16 22:40:24;;;;;;;9.70;4.50;;;;;;;;;;6118176;23;20173;-90
2022/08/16 22:43:29;;;;;;;7.68;4.20;;;;;;;;;;6117604;23;20172;-89
2022/08/16 22:46:36;;;;;;;8.52;4.57;;;;;;;;;;6118562;23;20266;-91
2022/08/16 22:49:41;;;;;;;8.55;4.60;;;;;;;;;;6117480;23;20316;-89
2022/08/16 22:52:48;;;;;;;7.43;4.50;;;;;;;;;;6117841;23;20221;-91
2022/08/16 22:55:53;;;;;;;5.72;4.18;;;;;;;;;;6117777;23;20228;-90
2022/08/16 22:58:58;;;;;;;13.05;4.35;;;;;;;;;;6116580;23;20205;-88
2022/08/16 23:02:05;;;;;;;7.97;4.38;;;;;;;;;;6116979;23;20169;-91
2022/08/16 23:05:10;;;;;;;7.78;4.22;;;;;;;;;;6116046;23;20188;-92
2022/08/16 23:08:18;;;;;;;4.97;3.60;;;;;;;;;;6116498;23;20169;-89
2022/08/16 23:11:24;;;;;;;6.72;3.95;;;;;;;;;;6117443;23;20200;-92
2022/08/16 23:14:29;;;;;;;7.65;4.20;;;;;;;;;;6114679;23;20173;-91
2022/08/16 23:17:34;;;;;;;6.32;4.10;;;;;;;;;;6115092;23;20591;-91
2022/08/16 23:20:41;;;;;;;6.10;4.00;;;;;;;;;;6116425;23;20169;-91
2022/08/16 23:23:47;;;;;;;8.15;4.18;;;;;;;;;;6115966;23;20181;-92
2022/08/16 23:26:52;;;;;;;9.18;4.13;;;;;;;;;;6117410;23;20200;-90
2022/08/16 23:29:58;;;;;;;7.22;4.28;;;;;;;;;;6117056;23;20582;-89
2022/08/16 23:33:08;;;;;;;5.82;3.85;;;;;;;;;;6117075;23;20730;-90
2022/08/16 23:36:13;;;;;;;6.88;3.72;;;;;;;;;;6119159;23;20174;-89
2022/08/16 23:39:20;;;;;;;8.20;4.30;;;;;;;;;;6120898;23;20169;-91
2022/08/16 23:42:26;;;;;;;9.00;4.28;;;;;;;;;;6122247;23;20173;-91
2022/08/16 23:45:33;;;;;;;7.55;4.25;;;;;;;;;;6121250;23;20173;-89
2022/08/16 23:48:38;;;;;;;8.82;4.00;;;;;;;;;;6121247;23;20197;-90
2022/08/16 23:51:43;;;;;;;6.80;4.15;;;;;;;;;;6122187;23;20173;-90
2022/08/16 23:54:51;;;;;;;6.82;4.47;;;;;;;;;;6097216;23;20173;-91
2022/08/16 23:57:57;;;;;;;8.05;4.43;;;;;;;;;;6121464;23;20213;-88
